createdAt,value
2022-10-11T00:00:32.676Z,10.00
2022-10-11T00:03:01.226Z,10.00
2022-10-11T00:05:29.539Z,10.20
2022-10-11T00:07:57.519Z,9.80
2022-10-11T00:10:25.895Z,10.60
2022-10-11T00:12:55.128Z,9.80
2022-10-11T00:15:23.802Z,9.70
2022-10-11T00:17:52.131Z,9.70
2022-10-11T00:20:20.147Z,9.70
2022-10-11T00:22:49.290Z,10.00
2022-10-11T00:25:18.527Z,10.00
2022-10-11T00:27:46.559Z,9.70
2022-10-11T00:30:16.002Z,9.70
2022-10-11T00:32:43.979Z,9.50
2022-10-11T00:35:12.000Z,9.40
2022-10-11T00:37:40.498Z,9.50
2022-10-11T00:40:13.710Z,9.40
2022-10-11T00:45:58.113Z,9.70
2022-10-11T00:48:34.058Z,9.00
2022-10-11T00:51:06.208Z,9.10
2022-10-11T00:53:34.871Z,9.30
2022-10-11T00:56:08.446Z,9.30
2022-10-11T00:58:38.421Z,9.00
2022-10-11T01:01:06.877Z,9.50
2022-10-11T01:03:37.353Z,9.30
2022-10-11T01:06:06.002Z,9.30
2022-10-11T01:11:02.951Z,9.50
2022-10-11T01:13:48.485Z,9.30
2022-10-11T01:16:23.997Z,9.00
2022-10-11T01:19:03.981Z,9.20
2022-10-11T01:21:40.497Z,9.50
2022-10-11T01:24:36.754Z,9.60
2022-10-11T01:27:29.189Z,9.00
2022-10-11T01:30:09.578Z,9.20
2022-10-11T01:32:49.172Z,8.90
2022-10-11T01:35:25.824Z,9.20
2022-10-11T01:38:00.661Z,9.20
2022-10-11T01:40:34.576Z,9.50
2022-10-11T01:43:04.277Z,9.40
2022-10-11T01:45:33.942Z,9.30
2022-10-11T01:48:08.733Z,9.10
2022-10-11T01:50:43.968Z,9.20
2022-10-11T01:53:35.603Z,9.60
2022-10-11T01:56:13.134Z,9.80
2022-10-11T01:58:56.129Z,9.20
2022-10-11T02:01:34.284Z,9.20
2022-10-11T02:04:11.742Z,8.90
2022-10-11T02:06:49.649Z,9.40
2022-10-11T02:09:25.553Z,9.30
2022-10-11T02:11:57.036Z,9.30
2022-10-11T02:14:28.793Z,9.30
2022-10-11T02:17:03.945Z,9.40
2022-10-11T02:19:38.396Z,9.10
2022-10-11T02:22:11.096Z,9.80
2022-10-11T02:24:42.868Z,9.50
2022-10-11T02:27:12.516Z,9.50
2022-10-11T02:29:44.945Z,9.60
2022-10-11T02:32:14.174Z,9.60
2022-10-11T02:34:48.218Z,9.60
2022-10-11T02:37:23.740Z,9.70
2022-10-11T02:39:55.929Z,9.70
2022-10-11T02:42:30.837Z,9.70
2022-10-11T02:45:03.883Z,9.80
2022-10-11T02:47:33.456Z,9.90
2022-10-11T02:50:03.310Z,9.90
2022-10-11T02:52:31.316Z,9.90
2022-10-11T02:54:59.352Z,10.00
2022-10-11T02:57:27.303Z,10.00
2022-10-11T02:59:55.443Z,10.10
2022-10-11T03:02:23.510Z,10.10
2022-10-11T03:04:51.507Z,10.10
2022-10-11T03:07:20.915Z,10.10
2022-10-11T03:09:48.979Z,10.10
2022-10-11T03:12:17.067Z,10.10
2022-10-11T03:14:44.963Z,10.10
2022-10-11T03:17:34.984Z,10.20
2022-10-11T03:20:00.840Z,10.20
2022-10-11T03:22:30.135Z,10.20
2022-10-11T03:25:03.372Z,10.20
2022-10-11T03:27:32.173Z,10.40
2022-10-11T03:30:00.324Z,10.20
2022-10-11T03:32:28.698Z,10.10
2022-10-11T03:34:56.874Z,10.10
2022-10-11T03:37:25.392Z,10.10
2022-10-11T03:39:54.751Z,10.10
2022-10-11T03:42:23.137Z,10.20
2022-10-11T03:44:52.054Z,10.10
2022-10-11T03:47:20.488Z,10.10
2022-10-11T03:49:48.540Z,10.10
2022-10-11T03:52:16.583Z,10.10
2022-10-11T03:54:44.551Z,10.20
2022-10-11T03:57:13.947Z,10.20
2022-10-11T03:59:41.938Z,10.10
2022-10-11T04:02:10.151Z,10.20
2022-10-11T04:04:38.216Z,10.10
2022-10-11T04:07:06.334Z,10.10
2022-10-11T04:09:34.488Z,10.10
2022-10-11T04:12:02.554Z,10.00
2022-10-11T04:14:31.963Z,10.00
2022-10-11T04:17:00.626Z,9.90
2022-10-11T04:19:29.196Z,10.60
2022-10-11T04:21:57.229Z,9.90
2022-10-11T04:24:25.143Z,9.90
2022-10-11T04:26:53.056Z,10.90
2022-10-11T04:29:21.084Z,10.10
2022-10-11T04:31:51.267Z,9.90
2022-10-11T04:34:19.688Z,9.80
2022-10-11T04:36:49.863Z,9.70
2022-10-11T04:39:18.167Z,10.40
2022-10-11T04:41:46.111Z,9.60
2022-10-11T04:44:14.047Z,9.60
2022-10-11T04:46:42.016Z,9.60
2022-10-11T04:49:11.281Z,9.50
2022-10-11T04:51:39.285Z,9.50
2022-10-11T04:54:07.302Z,9.50
2022-10-11T04:56:36.278Z,9.50
2022-10-11T04:59:04.601Z,9.50
2022-10-11T05:01:32.601Z,9.50
2022-10-11T05:04:00.546Z,9.40
2022-10-11T05:06:30.029Z,9.40
2022-10-11T05:08:58.167Z,9.40
2022-10-11T05:11:26.093Z,9.40
2022-10-11T05:13:54.037Z,9.50
2022-10-11T05:16:21.924Z,9.40
2022-10-11T05:18:49.967Z,9.40
2022-10-11T05:21:20.270Z,9.40
2022-10-11T05:23:51.448Z,9.40
2022-10-11T05:26:20.653Z,9.40
2022-10-11T05:28:48.761Z,9.30
2022-10-11T05:31:18.381Z,9.30
2022-10-11T05:33:46.290Z,9.30
2022-10-11T05:36:14.560Z,9.20
2022-10-11T05:38:42.610Z,9.20
2022-10-11T05:41:14.005Z,9.20
2022-10-11T05:43:42.514Z,9.20
2022-10-11T05:46:10.588Z,9.30
2022-10-11T05:48:38.562Z,9.30
2022-10-11T05:51:09.899Z,9.30
2022-10-11T05:53:38.549Z,9.20
2022-10-11T05:56:17.589Z,9.20
2022-10-11T05:58:47.049Z,9.20
2022-10-11T06:01:19.971Z,9.30
2022-10-11T06:03:48.036Z,9.30
2022-10-11T06:06:16.269Z,9.40
2022-10-11T06:08:44.564Z,9.50
2022-10-11T06:11:14.271Z,9.50
2022-10-11T06:13:42.580Z,9.60
2022-10-11T06:16:13.495Z,9.60
2022-10-11T06:18:41.684Z,9.60
2022-10-11T06:21:09.796Z,9.50
2022-10-11T06:23:37.833Z,9.60
2022-10-11T06:26:08.753Z,9.60
2022-10-11T06:28:38.146Z,9.60
2022-10-11T06:31:07.200Z,9.60
2022-10-11T06:33:37.373Z,9.60
2022-10-11T06:36:08.190Z,9.60
2022-10-11T06:38:39.778Z,9.60
2022-10-11T06:41:12.243Z,9.60
2022-10-11T06:43:40.264Z,9.70
2022-10-11T06:46:08.550Z,9.70
2022-10-11T06:48:41.965Z,9.70
2022-10-11T06:51:10.076Z,9.70
2022-10-11T06:53:38.165Z,9.70
2022-10-11T06:56:08.683Z,9.80
2022-10-11T06:58:37.612Z,9.80
2022-10-11T07:01:08.208Z,9.90
2022-10-11T07:03:37.885Z,9.90
2022-10-11T07:06:08.048Z,9.90
2022-10-11T07:08:36.969Z,9.90
2022-10-11T07:11:06.696Z,9.90
2022-10-11T07:13:34.832Z,9.90
2022-10-11T07:16:03.537Z,9.90
2022-10-11T07:18:32.860Z,10.00
2022-10-11T07:21:04.381Z,10.00
2022-10-11T07:23:32.738Z,10.10
2022-10-11T07:26:00.784Z,10.10
2022-10-11T07:28:30.593Z,10.10
2022-10-11T07:30:59.153Z,10.30
2022-10-11T07:33:27.386Z,10.20
2022-10-11T07:35:58.432Z,10.30
2022-10-11T07:38:28.268Z,10.30
2022-10-11T07:40:56.268Z,10.40
2022-10-11T07:43:24.577Z,10.40
2022-10-11T07:45:55.618Z,10.50
2022-10-11T07:48:23.675Z,10.50
2022-10-11T07:50:51.681Z,10.50
2022-10-11T07:53:19.781Z,10.60
2022-10-11T07:55:49.192Z,10.70
2022-10-11T07:58:17.208Z,10.70
2022-10-11T08:00:45.245Z,10.80
2022-10-11T08:03:14.046Z,10.80
2022-10-11T08:05:42.074Z,10.90
2022-10-11T08:08:10.387Z,10.90
2022-10-11T08:10:39.335Z,11.00
2022-10-11T08:13:08.795Z,11.10
2022-10-11T08:15:36.820Z,11.20
2022-10-11T08:18:05.139Z,11.30
2022-10-11T08:20:33.187Z,11.40
2022-10-11T08:23:01.231Z,11.50
2022-10-11T08:25:29.355Z,11.50
2022-10-11T08:27:57.507Z,11.60
2022-10-11T08:30:26.879Z,11.70
2022-10-11T08:32:55.514Z,11.70
2022-10-11T08:35:24.078Z,11.70
2022-10-11T08:37:52.251Z,11.70
2022-10-11T08:40:22.760Z,11.80
2022-10-11T08:42:58.347Z,11.80
2022-10-11T08:45:33.130Z,11.80
2022-10-11T08:48:12.340Z,11.80
2022-10-11T08:50:40.455Z,11.80
2022-10-11T08:53:17.351Z,11.80
2022-10-11T08:55:49.219Z,11.80
2022-10-11T08:58:20.623Z,11.90
2022-10-11T09:00:53.828Z,11.90
2022-10-11T09:03:36.341Z,12.00
2022-10-11T09:06:13.476Z,12.00
2022-10-11T09:08:54.091Z,12.00
2022-10-11T09:11:31.046Z,12.00
2022-10-11T09:14:33.394Z,12.00
2022-10-11T09:17:11.963Z,12.10
2022-10-11T09:20:05.298Z,12.20
2022-10-11T09:22:43.603Z,12.30
2022-10-11T09:25:24.170Z,12.30
2022-10-11T09:28:04.273Z,12.50
2022-10-11T09:30:34.130Z,12.60
2022-10-11T09:33:14.521Z,12.70
2022-10-11T09:35:47.146Z,12.80
2022-10-11T09:38:25.674Z,13.00
2022-10-11T09:41:03.886Z,13.00
2022-10-11T09:43:32.050Z,13.10
2022-10-11T09:46:00.094Z,13.10
2022-10-11T09:48:35.439Z,13.20
2022-10-11T09:51:07.393Z,13.30
2022-10-11T09:53:53.051Z,13.40
2022-10-11T09:56:21.515Z,13.60
2022-10-11T09:58:49.569Z,13.70
2022-10-11T10:01:26.296Z,14.00
2022-10-11T10:04:09.189Z,14.30
2022-10-11T10:06:37.846Z,14.40
2022-10-11T10:09:25.641Z,14.50
2022-10-11T10:11:54.402Z,14.90
2022-10-11T10:14:25.507Z,15.40
2022-10-11T10:17:05.143Z,15.70
2022-10-11T10:19:44.934Z,15.60
2022-10-11T10:22:19.804Z,15.50
2022-10-11T10:24:50.052Z,15.20
2022-10-11T10:27:21.941Z,15.00
2022-10-11T10:30:15.928Z,14.80
2022-10-11T10:32:50.921Z,14.60
2022-10-11T10:35:30.389Z,14.40
2022-10-11T10:38:07.981Z,14.80
2022-10-11T10:40:42.175Z,15.60
2022-10-11T10:43:16.483Z,16.20
2022-10-11T10:46:03.436Z,16.70
2022-10-11T10:49:12.087Z,17.10
2022-10-11T10:51:40.817Z,17.50
2022-10-11T10:54:19.047Z,18.00
2022-10-11T10:56:51.972Z,18.20
2022-10-11T10:59:47.351Z,18.00
2022-10-11T11:02:40.649Z,17.50
2022-10-11T11:05:21.087Z,17.10
2022-10-11T11:07:56.122Z,17.00
2022-10-11T11:10:31.481Z,16.80
2022-10-11T11:13:15.977Z,16.50
2022-10-11T11:15:47.786Z,16.10
2022-10-11T11:18:28.786Z,15.90
2022-10-11T11:21:11.176Z,15.80
2022-10-11T11:23:47.223Z,16.40
2022-10-11T11:26:23.416Z,17.20
2022-10-11T11:29:02.381Z,17.40
2022-10-11T11:31:46.861Z,17.30
2022-10-11T11:34:21.296Z,17.30
2022-10-11T11:36:53.208Z,17.10
2022-10-11T11:39:26.608Z,16.70
2022-10-11T11:41:59.541Z,16.50
2022-10-11T11:44:31.925Z,16.50
2022-10-11T11:47:04.581Z,16.80
2022-10-11T11:49:37.401Z,17.00
2022-10-11T11:52:07.720Z,17.20
2022-10-11T11:54:51.436Z,17.30
2022-10-11T11:57:28.467Z,17.70
2022-10-11T12:00:03.498Z,18.10
2022-10-11T12:02:44.646Z,18.60
2022-10-11T12:05:16.486Z,18.80
2022-10-11T12:07:55.424Z,19.00
2022-10-11T12:10:37.416Z,19.30
2022-10-11T12:13:20.095Z,19.50
2022-10-11T12:16:11.308Z,19.70
2022-10-11T12:18:54.944Z,19.90
2022-10-11T12:23:56.193Z,20.40
2022-10-11T12:26:40.807Z,20.20
2022-10-11T12:29:48.695Z,20.20
2022-10-11T12:32:53.568Z,20.40
2022-10-11T12:36:05.666Z,20.50
2022-10-11T12:38:41.881Z,20.60
2022-10-11T12:41:39.812Z,20.70
2022-10-11T12:44:10.388Z,20.80
2022-10-11T12:46:45.311Z,20.90
2022-10-11T12:49:31.159Z,20.90
2022-10-11T12:52:01.786Z,21.10
2022-10-11T12:54:56.055Z,21.20
2022-10-11T12:57:59.430Z,21.30
2022-10-11T13:00:31.068Z,21.00
2022-10-11T13:03:00.315Z,20.50
2022-10-11T13:05:31.708Z,20.30
2022-10-11T13:08:03.641Z,20.20
2022-10-11T13:10:37.855Z,20.10
2022-10-11T13:13:17.618Z,20.00
2022-10-11T13:15:46.489Z,19.70
2022-10-11T13:18:15.947Z,19.30
2022-10-11T13:20:44.167Z,18.80
2022-10-11T13:23:23.722Z,18.80
2022-10-11T13:25:52.779Z,18.90
2022-10-11T13:28:23.262Z,19.10
2022-10-11T13:30:54.154Z,19.10
2022-10-11T13:33:26.190Z,19.10
2022-10-11T13:35:54.547Z,19.10
2022-10-11T13:38:24.782Z,19.30
2022-10-11T13:40:53.506Z,19.40
2022-10-11T13:43:27.382Z,19.40
2022-10-11T13:45:56.763Z,19.60
2022-10-11T13:48:28.115Z,19.70
2022-10-11T13:51:08.834Z,19.80
2022-10-11T13:53:36.847Z,19.80
2022-10-11T13:56:07.537Z,19.80
2022-10-11T13:58:40.870Z,19.90
2022-10-11T14:01:19.111Z,20.00
2022-10-11T14:03:48.914Z,20.00
2022-10-11T14:06:17.106Z,19.90
2022-10-11T14:08:47.674Z,20.10
2022-10-11T14:11:16.829Z,20.20
2022-10-11T14:13:47.909Z,20.40
2022-10-11T14:16:31.109Z,20.60
2022-10-11T14:19:11.069Z,20.70
2022-10-11T14:21:52.879Z,20.80
2022-10-11T14:24:23.117Z,20.70
2022-10-11T14:26:53.633Z,20.30
2022-10-11T14:29:26.178Z,19.90
2022-10-11T14:31:57.785Z,19.60
2022-10-11T14:34:27.909Z,19.30
2022-10-11T14:36:56.214Z,19.00
2022-10-11T14:39:25.939Z,18.90
2022-10-11T14:41:54.213Z,18.80
2022-10-11T14:44:24.223Z,18.80
2022-10-11T14:46:54.948Z,18.80
2022-10-11T14:49:25.078Z,18.70
2022-10-11T14:51:54.938Z,18.60
2022-10-11T14:54:25.681Z,18.60
2022-10-11T14:56:55.541Z,18.60
2022-10-11T14:59:29.437Z,18.50
2022-10-11T15:01:57.443Z,18.40
2022-10-11T15:04:28.325Z,18.20
2022-10-11T15:06:57.577Z,18.00
2022-10-11T15:09:25.650Z,17.80
2022-10-11T15:11:54.914Z,17.60
2022-10-11T15:14:25.652Z,17.40
2022-10-11T15:16:56.085Z,17.30
2022-10-11T15:19:26.180Z,17.10
2022-10-11T15:21:54.364Z,17.00
2022-10-11T15:24:22.547Z,16.90
2022-10-11T15:26:50.732Z,16.80
2022-10-11T15:29:20.329Z,16.70
2022-10-11T15:31:50.300Z,16.60
2022-10-11T15:34:18.753Z,16.50
2022-10-11T15:36:47.012Z,16.40
2022-10-11T15:39:25.851Z,16.30
2022-10-11T15:41:54.145Z,16.20
2022-10-11T15:44:22.149Z,16.10
2022-10-11T15:46:51.530Z,16.10
2022-10-11T15:49:19.658Z,16.00
2022-10-11T15:51:49.226Z,15.90
2022-10-11T15:54:17.218Z,15.80
2022-10-11T15:56:45.149Z,15.70
2022-10-11T15:59:13.107Z,15.50
2022-10-11T16:01:41.132Z,15.30
2022-10-11T16:04:11.076Z,15.10
2022-10-11T16:06:40.992Z,15.00
2022-10-11T16:09:08.916Z,15.00
2022-10-11T16:11:36.964Z,14.90
2022-10-11T16:14:05.082Z,14.90
2022-10-11T16:16:33.164Z,14.80
2022-10-11T16:19:01.163Z,14.80
2022-10-11T16:21:30.464Z,14.70
2022-10-11T16:23:58.800Z,14.60
2022-10-11T16:26:27.041Z,14.50
2022-10-11T16:28:56.615Z,14.40
2022-10-11T16:31:24.786Z,14.30
2022-10-11T16:33:53.634Z,14.10
2022-10-11T16:36:32.805Z,14.00
2022-10-11T16:39:04.023Z,13.90
2022-10-11T16:41:32.123Z,13.80
2022-10-11T16:44:00.196Z,13.70
2022-10-11T16:46:28.165Z,13.60
2022-10-11T16:48:56.900Z,13.40
2022-10-11T16:51:25.370Z,13.40
2022-10-11T16:53:53.862Z,13.30
2022-10-11T16:56:25.040Z,13.20
2022-10-11T16:58:53.768Z,13.10
2022-10-11T17:01:22.476Z,13.00
2022-10-11T17:03:51.108Z,12.90
2022-10-11T17:06:19.310Z,12.80
2022-10-11T17:08:47.686Z,12.70
2022-10-11T17:11:17.428Z,12.50
2022-10-11T17:13:47.148Z,12.60
2022-10-11T17:16:15.703Z,12.60
2022-10-11T17:18:44.058Z,12.60
2022-10-11T17:21:14.076Z,12.40
2022-10-11T17:23:42.676Z,12.30
2022-10-11T17:26:15.213Z,12.20
2022-10-11T17:28:43.457Z,12.10
2022-10-11T17:31:13.019Z,12.00
2022-10-11T17:33:41.017Z,11.90
2022-10-11T17:36:19.658Z,11.80
2022-10-11T17:38:47.634Z,11.80
2022-10-11T17:41:15.717Z,11.70
2022-10-11T17:43:43.974Z,11.60
2022-10-11T17:46:15.215Z,11.60
2022-10-11T17:48:44.681Z,11.50
2022-10-11T17:51:15.436Z,11.40
2022-10-11T17:53:44.549Z,11.40
2022-10-11T17:56:15.006Z,11.30
2022-10-11T17:58:44.094Z,11.30
2022-10-11T18:01:15.587Z,11.30
2022-10-11T18:03:44.627Z,11.20
2022-10-11T18:06:14.216Z,11.20
2022-10-11T18:08:42.792Z,11.10
2022-10-11T18:11:12.460Z,11.00
2022-10-11T18:13:42.873Z,11.00
2022-10-11T18:16:11.633Z,10.90
2022-10-11T18:18:42.322Z,10.80
2022-10-11T18:21:11.158Z,10.70
2022-10-11T18:23:39.331Z,10.70
2022-10-11T18:26:12.054Z,10.70
2022-10-11T18:28:41.190Z,10.60
2022-10-11T18:31:13.480Z,10.50
2022-10-11T18:33:45.532Z,10.50
2022-10-11T18:36:14.950Z,10.40
2022-10-11T18:38:46.638Z,10.30
2022-10-11T18:41:17.150Z,10.40
2022-10-11T18:43:49.968Z,10.20
2022-10-11T18:46:18.766Z,10.10
2022-10-11T18:48:51.650Z,10.10
2022-10-11T18:51:21.546Z,10.10
2022-10-11T18:53:50.279Z,10.10
2022-10-11T18:56:20.956Z,10.00
2022-10-11T18:58:52.270Z,10.00
2022-10-11T19:01:22.069Z,9.90
2022-10-11T19:03:53.500Z,9.80
2022-10-11T19:06:24.378Z,10.00
2022-10-11T19:08:54.793Z,9.70
2022-10-11T19:11:25.340Z,9.60
2022-10-11T19:13:57.317Z,9.60
2022-10-11T19:16:26.029Z,9.60
2022-10-11T19:18:55.361Z,9.60
2022-10-11T19:21:23.957Z,9.60
2022-10-11T19:23:52.313Z,9.50
2022-10-11T19:26:22.585Z,9.40
2022-10-11T19:28:56.349Z,9.40
2022-10-11T19:31:24.777Z,9.40
2022-10-11T19:33:52.794Z,9.40
2022-10-11T19:36:22.061Z,9.20
2022-10-11T19:38:51.629Z,9.10
2022-10-11T19:41:20.784Z,9.10
2022-10-11T19:43:49.093Z,9.00
2022-10-11T19:46:38.019Z,9.00
2022-10-11T19:49:08.989Z,8.90
2022-10-11T19:51:38.312Z,8.90
2022-10-11T19:54:08.642Z,8.80
2022-10-11T19:56:36.693Z,8.80
2022-10-11T19:59:06.331Z,8.80
2022-10-11T20:01:35.534Z,8.80
2022-10-11T20:04:05.637Z,8.80
2022-10-11T20:06:38.285Z,8.70
2022-10-11T20:09:28.440Z,8.70
2022-10-11T20:11:56.184Z,8.60
2022-10-11T20:14:24.497Z,8.70
2022-10-11T20:16:52.562Z,8.60
2022-10-11T20:19:26.270Z,8.60
2022-10-11T20:21:56.101Z,8.50
2022-10-11T20:24:27.459Z,8.50
2022-10-11T20:26:55.536Z,8.40
2022-10-11T20:29:25.292Z,8.30
2022-10-11T20:31:53.601Z,8.30
2022-10-11T20:34:21.600Z,8.20
2022-10-11T20:36:49.658Z,8.20
2022-10-11T20:39:17.964Z,8.20
2022-10-11T20:41:47.348Z,8.20
2022-10-11T20:44:16.212Z,8.20
2022-10-11T20:46:44.292Z,8.20
2022-10-11T20:49:13.417Z,8.10
2022-10-11T20:51:42.888Z,8.10
2022-10-11T20:54:11.681Z,8.00
2022-10-11T20:56:40.252Z,7.80
2022-10-11T20:59:10.094Z,7.80
2022-10-11T21:01:40.367Z,7.80
2022-10-11T21:04:09.632Z,7.80
2022-10-11T21:06:37.627Z,7.80
2022-10-11T21:09:05.619Z,7.70
2022-10-11T21:11:35.095Z,7.70
2022-10-11T21:14:04.912Z,7.60
2022-10-11T21:16:34.939Z,7.80
2022-10-11T21:19:04.041Z,7.60
2022-10-11T21:21:32.019Z,7.60
2022-10-11T21:24:02.174Z,8.00
2022-10-11T21:26:31.109Z,7.60
2022-10-11T21:29:00.258Z,7.50
2022-10-11T21:31:32.908Z,7.60
2022-10-11T21:34:05.047Z,7.40
2022-10-11T21:36:33.034Z,7.40
2022-10-11T21:39:01.055Z,7.30
2022-10-11T21:41:30.337Z,7.30
2022-10-11T21:43:58.728Z,7.10
2022-10-11T21:46:54.154Z,6.90
2022-10-11T21:49:17.999Z,6.70
2022-10-11T21:51:46.291Z,6.70
2022-10-11T21:54:14.324Z,6.80
2022-10-11T21:56:42.564Z,6.80
2022-10-11T21:59:12.315Z,7.00
2022-10-11T22:01:41.751Z,7.00
2022-10-11T22:04:10.799Z,7.00
2022-10-11T22:06:40.610Z,6.90
2022-10-11T22:09:09.310Z,6.90
2022-10-11T22:11:37.361Z,6.90
2022-10-11T22:14:05.669Z,7.00
2022-10-11T22:16:35.417Z,6.90
2022-10-11T22:19:03.978Z,6.90
2022-10-11T22:21:31.929Z,6.90
2022-10-11T22:24:01.269Z,7.00
2022-10-11T22:26:31.179Z,7.00
2022-10-11T22:29:00.312Z,7.00
2022-10-11T22:31:28.807Z,7.00
2022-10-11T22:33:58.424Z,6.90
2022-10-11T22:36:27.823Z,7.00
2022-10-11T22:38:55.755Z,6.90
2022-10-11T22:41:25.170Z,6.80
2022-10-11T22:43:53.331Z,6.70
2022-10-11T22:46:21.198Z,6.60
2022-10-11T22:48:49.155Z,6.60
2022-10-11T22:51:17.182Z,6.60
2022-10-11T22:53:45.107Z,6.50
2022-10-11T22:56:13.093Z,6.50
2022-10-11T22:58:42.402Z,6.50
2022-10-11T23:01:11.569Z,6.50
2022-10-11T23:03:39.776Z,6.50
2022-10-11T23:06:07.937Z,6.50
2022-10-11T23:08:35.830Z,6.50
2022-10-11T23:11:05.297Z,6.50
2022-10-11T23:13:33.705Z,6.40
2022-10-11T23:16:07.196Z,6.30
2022-10-11T23:18:35.173Z,6.30
2022-10-11T23:21:03.633Z,6.30
2022-10-11T23:23:32.074Z,6.20
2022-10-11T23:26:05.671Z,6.80
2022-10-11T23:28:33.731Z,6.60
2022-10-11T23:31:07.590Z,6.20
2022-10-11T23:33:35.521Z,6.20
2022-10-11T23:36:03.589Z,6.10
2022-10-11T23:38:31.500Z,6.10
2022-10-11T23:40:59.437Z,6.30
2022-10-11T23:43:27.345Z,6.00
2022-10-11T23:45:55.890Z,6.00
2022-10-11T23:48:25.201Z,6.00
2022-10-11T23:50:53.147Z,6.00
2022-10-11T23:53:21.038Z,6.00
2022-10-11T23:55:48.958Z,6.00
2022-10-11T23:58:16.841Z,6.00
